Time;durP1;ratioP1;P1;durP2;ratioP2;P2;SDS_P1;SDS_P2;PMS_P1;PMS_P2;Temp;Humidity;BMP_temperature;BMP_pressure;BME280_temperature;BME280_humidity;BME280_pressure;Samples;Min_cycle;Max_cycle;Signal;HPM_P1;HPM_P2
2021/06/14 04:42:34;;;;;;;10.65;5.95;;;;;;;15.30;61.21;101001.47;5865914;22;100391;-84
2021/06/14 04:45:00;;;;;;;11.65;6.28;;;;;;;15.33;60.76;101001.34;5553399;22;99035;-83
2021/06/14 04:47:26;;;;;;;19.98;6.25;;;;;;;15.46;61.01;100996.38;4942158;28;96428;-83
2021/06/14 04:49:51;;;;;;;13.68;5.97;;;;;;;15.84;60.17;101002.63;4905803;28;99942;-85
2021/06/14 04:52:17;;;;;;;13.75;6.43;;;;;;;16.13;59.29;100997.78;4913986;28;98883;-86
2021/06/14 04:54:43;;;;;;;10.90;6.53;;;;;;;16.18;59.43;101001.09;4906850;28;96690;-87
2021/06/14 04:57:08;;;;;;;12.52;6.25;;;;;;;16.15;59.27;101003.88;4923665;28;96736;-87
2021/06/14 04:59:34;;;;;;;16.83;5.20;;;;;;;16.10;59.26;100997.94;4923203;28;99774;-86
2021/06/14 05:02:00;;;;;;;17.45;6.20;;;;;;;16.35;58.60;101000.31;4911594;28;98260;-87
2021/06/14 05:04:26;;;;;;;11.30;6.43;;;;;;;16.22;58.97;101001.81;4887429;28;96734;-87
2021/06/14 05:06:51;;;;;;;14.05;6.28;;;;;;;16.26;59.23;100998.06;4886845;28;96881;-87
2021/06/14 05:09:17;;;;;;;16.13;6.53;;;;;;;16.59;58.45;101005.38;4935986;28;97938;-93
2021/06/14 05:11:43;;;;;;;12.95;6.57;;;;;;;17.10;57.61;101007.25;4921566;28;100433;-89
2021/06/14 05:14:08;;;;;;;11.05;6.32;;;;;;;17.48;56.48;100993.81;4925766;28;97000;-89
2021/06/14 05:16:34;;;;;;;11.75;6.93;;;;;;;17.83;56.28;101002.63;4902528;28;97277;-89
2021/06/14 05:18:59;;;;;;;14.65;5.78;;;;;;;17.78;56.14;101006.47;4901619;28;97665;-89
2021/06/14 05:21:25;;;;;;;11.05;5.88;;;;;;;17.59;56.90;100999.44;4922117;28;98400;-89
2021/06/14 05:23:51;;;;;;;15.82;5.88;;;;;;;17.49;56.75;100995.56;4905354;28;97198;-89
2021/06/14 05:26:17;;;;;;;12.18;5.32;;;;;;;17.99;55.65;101001.81;4905868;28;96896;-89
2021/06/14 05:28:43;;;;;;;15.60;5.50;;;;;;;18.37;55.25;100996.19;4920718;28;101696;-89
2021/06/14 05:31:09;;;;;;;10.95;4.97;;;;;;;18.33;54.27;100998.16;4880412;28;101298;-89
2021/06/14 05:33:35;;;;;;;9.57;4.50;;;;;;;18.39;54.04;101004.94;4886488;28;96897;-89
2021/06/14 05:36:00;;;;;;;13.50;5.03;;;;;;;18.66;53.48;101006.03;4901986;28;97568;-89
2021/06/14 05:38:26;;;;;;;13.68;5.22;;;;;;;18.68;53.10;101000.63;4885933;28;101028;-89
2021/06/14 05:40:52;;;;;;;12.15;5.47;;;;;;;19.13;52.53;100999.78;4901311;28;100666;-89
2021/06/14 05:43:18;;;;;;;15.45;4.80;;;;;;;19.77;51.83;101004.88;4913228;28;96767;-89
2021/06/14 05:45:43;;;;;;;18.25;9.27;;;;;;;20.18;50.99;101001.41;4917341;28;97096;-87
2021/06/14 05:48:09;;;;;;;12.07;4.78;;;;;;;20.34;49.53;101004.81;4901930;28;101531;-88
2021/06/14 05:50:35;;;;;;;9.88;5.38;;;;;;;21.00;48.50;100998.72;4918141;28;101359;-88
2021/06/14 05:53:00;;;;;;;12.88;4.97;;;;;;;21.70;47.53;100989.56;4917329;28;96845;-88
2021/06/14 05:55:26;;;;;;;8.68;4.00;;;;;;;22.38;46.11;100991.78;4901403;28;97042;-88
2021/06/14 05:57:51;;;;;;;8.75;4.68;;;;;;;22.90;44.24;100992.44;4897830;28;101050;-89
2021/06/14 06:00:17;;;;;;;9.55;5.35;;;;;;;23.58;43.01;100993.50;4895792;28;100896;-87
2021/06/14 06:02:43;;;;;;;12.23;4.93;;;;;;;24.51;41.45;100990.56;4899913;28;96723;-89
2021/06/14 06:05:09;;;;;;;11.98;5.35;;;;;;;25.43;39.80;100990.91;4893498;28;96874;-88
2021/06/14 06:07:36;;;;;;;8.38;5.05;;;;;;;26.01;39.10;100993.06;4900560;28;101379;-89
2021/06/14 06:10:04;;;;;;;10.27;5.05;;;;;;;26.44;37.74;100986.53;4899319;28;100088;-87
2021/06/14 06:12:29;;;;;;;11.57;5.43;;;;;;;26.84;37.23;100988.28;4868963;28;97116;-88
2021/06/14 06:14:55;;;;;;;11.60;5.22;;;;;;;26.90;36.64;100990.41;4881140;28;97072;-88
2021/06/14 06:17:20;;;;;;;10.25;5.32;;;;;;;27.59;35.86;101005.53;4881538;28;101843;-88
2021/06/14 06:19:46;;;;;;;10.70;5.72;;;;;;;27.65;35.54;100996.88;4875134;28;101155;-87
2021/06/14 06:22:13;;;;;;;10.20;4.85;;;;;;;27.73;34.54;101002.38;4933786;28;96942;-88
2021/06/14 06:24:38;;;;;;;11.55;5.68;;;;;;;28.02;34.82;101006.00;4903959;28;97156;-86
2021/06/14 06:27:04;;;;;;;8.57;5.00;;;;;;;28.29;34.29;101003.28;4903538;28;101275;-88
2021/06/14 06:29:30;;;;;;;10.27;5.90;;;;;;;28.33;33.66;101002.00;4944753;28;96844;-87
2021/06/14 06:31:55;;;;;;;8.80;5.72;;;;;;;28.43;34.33;100994.72;4908132;28;97127;-87
2021/06/14 06:34:21;;;;;;;12.73;6.60;;;;;;;28.23;33.80;100998.50;4896687;28;97102;-87
2021/06/14 06:36:47;;;;;;;9.10;6.72;;;;;;;28.84;34.36;100994.28;4900106;28;101482;-87
2021/06/14 06:39:12;;;;;;;8.35;6.35;;;;;;;29.31;33.28;100992.16;4898885;28;101554;-88
2021/06/14 06:41:38;;;;;;;11.60;8.05;;;;;;;29.73;32.77;100994.16;4911067;28;97368;-88
2021/06/14 06:44:04;;;;;;;10.48;4.88;;;;;;;29.99;32.49;100994.13;4890777;28;96855;-89
2021/06/14 06:46:29;;;;;;;10.10;4.72;;;;;;;29.86;32.16;100991.00;4902709;28;102179;-89
2021/06/14 06:48:55;;;;;;;9.68;4.50;;;;;;;29.94;31.43;100991.03;4902496;28;100532;-88
2021/06/14 06:51:20;;;;;;;8.73;4.63;;;;;;;29.85;31.13;100996.59;4914401;28;97063;-88
2021/06/14 06:53:46;;;;;;;12.95;4.13;;;;;;;29.84;31.05;101001.13;4899704;28;96954;-90
2021/06/14 06:56:12;;;;;;;8.80;4.63;;;;;;;30.04;30.36;100993.63;4912690;28;98369;-91
2021/06/14 06:58:37;;;;;;;11.68;9.25;;;;;;;30.68;30.31;100996.69;4918041;28;101122;-90
2021/06/14 07:01:03;;;;;;;7.97;4.40;;;;;;;31.01;30.28;100994.91;4912579;28;97314;-87
2021/06/14 07:03:29;;;;;;;7.72;4.82;;;;;;;31.27;29.06;100993.88;4900720;28;97006;-90
2021/06/14 07:05:55;;;;;;;8.00;4.85;;;;;;;31.28;28.92;100987.44;4897712;28;101700;-90
2021/06/14 07:08:21;;;;;;;7.72;5.00;;;;;;;30.82;29.87;100985.25;4916720;28;97908;-89
2021/06/14 07:10:46;;;;;;;9.80;4.90;;;;;;;29.40;31.45;100989.50;4901273;28;96775;-90
2021/06/14 07:13:13;;;;;;;8.00;5.03;;;;;;;31.14;29.05;100983.53;4884551;28;96806;-86
2021/06/14 07:15:39;;;;;;;8.60;5.30;;;;;;;30.99;28.88;100986.09;4913981;28;98134;-85
2021/06/14 07:18:05;;;;;;;9.27;5.30;;;;;;;31.94;26.61;100982.72;4877121;28;101895;-85
2021/06/14 07:20:30;;;;;;;7.90;5.03;;;;;;;32.54;25.57;100975.84;4905804;28;96970;-86
2021/06/14 07:22:57;;;;;;;7.22;4.78;;;;;;;31.09;27.97;100977.78;4905566;28;97358;-89
2021/06/14 07:25:22;;;;;;;7.10;5.13;;;;;;;31.00;27.56;100976.94;4933679;28;98618;-91
2021/06/14 07:27:49;;;;;;;8.48;4.70;;;;;;;29.34;29.34;100975.63;4901054;28;101060;-91
2021/06/14 07:30:16;;;;;;;7.88;4.60;;;;;;;28.50;31.18;100975.19;4900316;28;97284;-93
2021/06/14 07:32:42;;;;;;;8.10;5.03;;;;;;;29.91;28.85;100985.97;4876704;28;97240;-89
2021/06/14 07:35:09;;;;;;;6.60;4.43;;;;;;;29.80;29.55;100980.81;4882020;28;100483;-89
2021/06/14 07:37:35;;;;;;;14.27;5.30;;;;;;;31.28;27.86;100971.16;4917711;28;101707;-91
2021/06/14 07:40:00;;;;;;;7.53;5.05;;;;;;;31.39;26.61;100970.84;4901617;28;97265;-91
2021/06/14 07:42:26;;;;;;;8.48;5.10;;;;;;;32.90;26.52;100970.63;4902229;28;97388;-90
2021/06/14 07:44:52;;;;;;;8.88;5.90;;;;;;;33.70;25.99;100969.22;4904322;28;98398;-86
2021/06/14 07:47:17;;;;;;;9.07;6.10;;;;;;;34.40;24.26;100970.53;4910463;28;97931;-85
2021/06/14 07:49:43;;;;;;;6.57;4.80;;;;;;;33.94;23.69;100971.63;4908780;28;97341;-87
2021/06/14 07:52:09;;;;;;;9.05;5.35;;;;;;;34.40;23.67;100962.38;4915088;28;97386;-84
2021/06/14 07:54:35;;;;;;;8.13;5.07;;;;;;;34.40;24.30;100967.81;4903771;28;99011;-84
2021/06/14 07:57:02;;;;;;;8.55;5.18;;;;;;;34.78;24.04;100965.72;4909131;28;101569;-84
2021/06/14 07:59:28;;;;;;;11.68;4.90;;;;;;;33.69;24.63;100962.94;4932407;28;96870;-83
2021/06/14 08:01:53;;;;;;;7.28;4.40;;;;;;;35.04;23.33;100956.91;4903480;28;97239;-84
2021/06/14 08:04:19;;;;;;;12.20;11.02;;;;;;;35.37;23.04;100959.06;4907697;28;102069;-92
2021/06/14 08:06:44;;;;;;;11.75;5.00;;;;;;;35.60;22.61;100953.38;4912236;28;101793;-89
2021/06/14 08:09:13;;;;;;;8.18;4.90;;;;;;;36.22;22.47;100957.06;4900434;28;96898;-90
2021/06/14 08:11:39;;;;;;;6.78;4.15;;;;;;;36.43;21.59;100947.84;4904951;28;97388;-92
2021/06/14 08:14:05;;;;;;;6.25;4.20;;;;;;;36.42;22.68;100948.88;4903899;28;100145;-91
2021/06/14 08:16:32;;;;;;;12.20;10.90;;;;;;;36.64;22.26;100944.97;4900179;28;101545;-89
2021/06/14 08:21:40;;;;;;;10.88;9.90;;;;;;;36.55;21.96;100948.94;4920686;28;96973;-89
2021/06/14 08:26:50;;;;;;;11.15;4.95;;;;;;;37.01;20.20;100950.06;4892877;28;101552;-87
2021/06/14 08:29:15;;;;;;;6.88;5.20;;;;;;;35.25;22.26;100939.69;4920711;28;97403;-91
2021/06/14 08:31:41;;;;;;;6.72;4.97;;;;;;;33.76;23.73;100938.53;4904296;28;96847;-88
2021/06/14 08:34:09;;;;;;;6.90;4.38;;;;;;;32.71;25.66;100941.25;4918995;28;98261;-90
2021/06/14 08:36:35;;;;;;;7.82;4.60;;;;;;;31.91;26.80;100954.09;4900969;28;97842;-91
2021/06/14 08:39:02;;;;;;;5.65;4.88;;;;;;;31.71;27.07;100948.22;4900072;28;98098;-82
2021/06/14 08:41:28;;;;;;;8.75;4.93;;;;;;;30.49;27.74;100948.28;4901870;28;97423;-91
2021/06/14 08:43:57;;;;;;;10.00;9.00;;;;;;;29.39;28.26;100948.13;4914026;28;100164;-91
2021/06/14 08:46:25;;;;;;;11.68;10.57;;;;;;;31.24;27.24;100940.84;4898104;28;98499;-91
2021/06/14 08:48:51;;;;;;;11.27;10.18;;;;;;;32.88;25.73;100935.47;4896454;28;97433;-88
2021/06/14 08:51:17;;;;;;;10.98;9.98;;;;;;;33.15;24.14;100927.78;4910248;28;96869;-91
2021/06/14 08:53:43;;;;;;;10.30;9.30;;;;;;;33.89;23.14;100922.38;4924659;28;98052;-91
2021/06/14 08:56:08;;;;;;;12.38;11.23;;;;;;;32.26;24.67;100927.44;4910521;28;101229;-91
2021/06/14 08:58:34;;;;;;;11.10;8.85;;;;;;;31.70;26.18;100927.50;4902796;28;97248;-92
2021/06/14 09:01:01;;;;;;;7.65;4.93;;;;;;;30.70;27.91;100934.22;4931487;28;97276;-87
2021/06/14 09:03:27;;;;;;;10.00;8.57;;;;;;;30.95;28.06;100930.53;4925638;28;98091;-86
2021/06/14 09:05:52;;;;;;;7.25;5.20;;;;;;;30.10;29.07;100919.88;4908556;28;100291;-88
2021/06/14 09:08:24;;;;;;;10.43;5.78;;;;;;;29.37;30.22;100928.50;4907271;28;97588;-87
2021/06/14 09:10:51;;;;;;;8.35;5.22;;;;;;;29.73;28.43;100929.22;4907493;28;97374;-85
2021/06/14 09:13:25;;;;;;;7.05;5.10;;;;;;;30.54;28.58;100933.19;4908067;28;101645;-88
2021/06/14 09:16:10;;;;;;;9.65;5.55;;;;;;;30.73;27.45;100925.78;4909254;28;98527;-86
2021/06/14 09:18:37;;;;;;;7.90;5.22;;;;;;;30.97;27.27;100919.53;4916508;28;97290;-87
2021/06/14 09:21:10;;;;;;;10.77;9.68;;;;;;;30.98;27.22;100911.22;4918642;28;97227;-88
2021/06/14 09:23:50;;;;;;;8.73;5.90;;;;;;;30.89;27.84;100915.81;4916035;28;101741;-86
2021/06/14 09:26:34;;;;;;;8.45;5.03;;;;;;;31.42;27.85;100913.53;4926417;28;97296;-91
2021/06/14 09:29:08;;;;;;;8.77;4.93;;;;;;;30.15;28.48;100912.09;4895649;28;97230;-92
2021/06/14 09:31:43;;;;;;;9.90;5.57;;;;;;;29.84;29.16;100916.41;4900232;28;98239;-91
2021/06/14 09:34:10;;;;;;;8.68;5.50;;;;;;;30.29;28.62;100916.06;4912533;28;101801;-90
2021/06/14 09:36:35;;;;;;;7.13;4.65;;;;;;;30.76;28.16;100909.16;4896128;28;100549;-91
2021/06/14 09:39:08;;;;;;;9.30;5.57;;;;;;;30.89;27.81;100910.41;4904151;28;97451;-90
2021/06/14 09:41:40;;;;;;;8.07;5.43;;;;;;;30.95;27.67;100898.03;4910370;28;97155;-90
2021/06/14 09:44:05;;;;;;;8.30;5.28;;;;;;;30.79;28.56;100892.59;4886304;28;100035;-90
2021/06/14 09:46:32;;;;;;;8.15;5.50;;;;;;;30.28;29.53;100900.81;4902986;28;100132;-87
2021/06/14 09:49:01;;;;;;;10.93;4.90;;;;;;;29.80;29.79;100901.53;4902073;28;97136;-88
2021/06/14 09:51:29;;;;;;;7.97;4.90;;;;;;;29.81;29.23;100901.34;4903270;28;96958;-86
2021/06/14 09:53:55;;;;;;;7.18;4.75;;;;;;;30.20;29.76;100892.69;4902180;28;101170;-87
2021/06/14 09:56:25;;;;;;;8.35;5.15;;;;;;;30.35;29.24;100901.88;4897961;28;101738;-87
2021/06/14 09:58:54;;;;;;;12.68;5.40;;;;;;;30.10;28.94;100895.50;4885257;28;96789;-86
2021/06/14 10:01:44;;;;;;;7.40;5.07;;;;;;;30.13;29.33;100900.59;4913662;28;97170;-84
2021/06/14 10:04:09;;;;;;;;;;;;;;;29.86;28.54;100890.88;4884925;28;101713;-88
2021/06/14 10:06:42;;;;;;;7.32;5.05;;;;;;;29.81;27.67;100886.97;4899374;28;100800;-88
2021/06/14 10:09:13;;;;;;;11.07;5.32;;;;;;;29.27;28.83;100882.66;4901700;28;96833;-91
2021/06/14 10:11:40;;;;;;;10.45;6.60;;;;;;;29.39;29.18;100890.50;4919363;28;97005;-89
2021/06/14 10:14:18;;;;;;;7.60;5.03;;;;;;;29.15;28.88;100881.25;4929485;28;98108;-88
2021/06/14 10:16:45;;;;;;;7.70;5.35;;;;;;;28.57;29.32;100882.63;4894956;28;101080;-89
2021/06/14 10:19:13;;;;;;;8.32;5.68;;;;;;;27.84;30.38;100889.94;4887299;28;97451;-90
2021/06/14 10:21:44;;;;;;;7.93;5.30;;;;;;;27.39;30.72;100887.97;4902972;28;96747;-90
2021/06/14 10:24:14;;;;;;;8.82;5.40;;;;;;;27.20;30.68;100887.06;4898674;28;100949;-90
2021/06/14 10:26:41;;;;;;;;;;;;;;;27.38;32.37;100881.75;4902844;28;100297;-89
2021/06/14 10:29:08;;;;;;;12.30;5.80;;;;;;;27.65;32.40;100874.69;4915229;28;97350;-90
2021/06/14 10:31:38;;;;;;;7.30;5.32;;;;;;;27.49;31.84;100872.63;4896242;28;97117;-84
2021/06/14 10:34:04;;;;;;;8.27;5.53;;;;;;;27.20;31.80;100872.72;4904020;28;101278;-90
2021/06/14 10:36:30;;;;;;;8.85;4.93;;;;;;;26.59;31.94;100871.28;4898493;28;101267;-87
2021/06/14 10:38:56;;;;;;;9.23;5.63;;;;;;;26.20;32.59;100868.53;4899748;28;97129;-87
2021/06/14 10:41:24;;;;;;;7.90;5.43;;;;;;;26.59;32.64;100865.88;4901088;28;97011;-86
2021/06/14 10:43:52;;;;;;;11.02;5.75;;;;;;;26.15;33.17;100858.19;4916960;28;97954;-85
2021/06/14 10:46:19;;;;;;;7.63;5.30;;;;;;;26.38;32.92;100864.16;4913154;28;98933;-86
2021/06/14 10:48:46;;;;;;;22.30;20.23;;;;;;;26.22;32.53;100854.94;4882298;28;97020;-87
2021/06/14 10:51:14;;;;;;;11.18;6.20;;;;;;;25.90;32.67;100859.56;4881383;28;96824;-87
2021/06/14 10:53:40;;;;;;;8.10;6.05;;;;;;;25.84;33.79;100852.06;4898255;28;101311;-89
2021/06/14 10:56:07;;;;;;;8.45;5.47;;;;;;;25.62;33.33;100846.84;4897944;28;101767;-86
2021/06/14 10:58:33;;;;;;;8.30;5.68;;;;;;;25.52;34.20;100855.75;4877862;28;96662;-90
2021/06/14 11:01:06;;;;;;;9.07;5.95;;;;;;;25.80;35.22;100849.72;4889466;28;96977;-86
2021/06/14 11:03:47;;;;;;;10.15;5.47;;;;;;;26.10;35.37;100844.31;4886528;28;101463;-86
2021/06/14 11:06:24;;;;;;;9.10;5.35;;;;;;;26.11;34.58;100846.00;4900553;28;101313;-90
2021/06/14 11:09:01;;;;;;;10.15;6.07;;;;;;;26.12;34.39;100836.97;4898898;28;97227;-89
2021/06/14 11:11:27;;;;;;;11.10;5.68;;;;;;;26.15;34.90;100828.59;4899573;28;96868;-89
2021/06/14 11:13:53;;;;;;;7.78;4.97;;;;;;;26.05;34.89;100813.44;4900123;28;97010;-89
2021/06/14 11:16:20;;;;;;;9.38;5.45;;;;;;;26.18;34.87;100828.31;4889163;28;100962;-89
2021/06/14 11:18:47;;;;;;;7.70;5.00;;;;;;;26.19;34.52;100823.78;4910688;28;96857;-88
2021/06/14 11:21:17;;;;;;;8.23;4.82;;;;;;;26.28;33.76;100827.47;4898571;28;97332;-89
2021/06/14 11:23:44;;;;;;;;;;;;;;;25.57;32.87;100816.84;4899082;28;101543;-89
2021/06/14 11:26:11;;;;;;;10.85;6.18;;;;;;;25.30;33.97;100813.78;4879994;28;100204;-89
2021/06/14 11:28:38;;;;;;;11.50;6.18;;;;;;;25.13;34.15;100816.22;4894228;28;98031;-89
2021/06/14 11:31:19;;;;;;;9.15;5.95;;;;;;;25.31;35.11;100809.28;4898656;28;97186;-89
2021/06/14 11:33:47;;;;;;;7.95;5.22;;;;;;;25.53;34.67;100810.91;4896793;28;100547;-88
2021/06/14 11:36:20;;;;;;;9.25;5.80;;;;;;;25.45;34.76;100810.72;4912512;28;99994;-89
2021/06/14 11:38:47;;;;;;;12.77;6.97;;;;;;;25.61;35.25;100800.31;4916044;28;96844;-89
2021/06/14 11:41:33;;;;;;;13.40;5.25;;;;;;;25.34;34.19;100797.41;4864371;28;96789;-89
2021/06/14 11:44:30;;;;;;;8.25;5.30;;;;;;;25.48;35.50;100792.53;4876089;28;101890;-89
2021/06/14 11:47:11;;;;;;;9.43;6.22;;;;;;;25.68;35.39;100800.59;4895616;28;101034;-89
2021/06/14 11:49:37;;;;;;;11.18;5.80;;;;;;;25.64;35.07;100796.50;4894403;28;96702;-89
2021/06/14 11:52:22;;;;;;;15.25;5.80;;;;;;;25.55;35.55;100800.03;4882882;28;96887;-89
2021/06/14 11:54:53;;;;;;;9.18;5.22;;;;;;;25.52;34.71;100801.16;4898556;28;98721;-89
2021/06/14 11:57:25;;;;;;;;;;;;;;;25.42;35.76;100795.72;4899098;28;101215;-88
2021/06/14 11:59:50;;;;;;;10.93;5.95;;;;;;;25.42;35.13;100794.88;4863565;28;97206;-89
2021/06/14 12:02:21;;;;;;;11.38;5.60;;;;;;;25.54;35.03;100791.13;4891435;28;96908;-89
2021/06/14 12:04:52;;;;;;;10.73;6.38;;;;;;;25.31;33.89;100785.09;4878982;28;101286;-88
2021/06/14 12:07:27;;;;;;;7.47;5.28;;;;;;;24.97;34.09;100779.97;4892729;28;100863;-88
2021/06/14 12:09:55;;;;;;;15.10;5.80;;;;;;;24.80;33.81;100778.75;4897172;28;96708;-84
2021/06/14 12:12:20;;;;;;;13.00;5.70;;;;;;;25.03;34.74;100774.06;4909252;28;96706;-86
2021/06/14 12:14:53;;;;;;;10.77;5.95;;;;;;;25.14;37.21;100772.31;4896012;28;100514;-87
2021/06/14 12:17:24;;;;;;;10.15;5.10;;;;;;;24.96;36.47;100774.72;4881144;28;101307;-87
2021/06/14 12:19:50;;;;;;;9.27;5.15;;;;;;;25.07;36.24;100761.22;4892891;28;96945;-81
2021/06/14 12:22:19;;;;;;;9.70;5.30;;;;;;;24.98;35.64;100765.56;4876984;28;96828;-86
2021/06/14 12:24:44;;;;;;;8.57;5.30;;;;;;;25.01;35.49;100759.91;4878780;28;100997;-86
2021/06/14 12:27:10;;;;;;;9.32;5.03;;;;;;;25.05;35.51;100774.78;4914766;28;97978;-85
2021/06/14 12:29:38;;;;;;;9.88;5.40;;;;;;;25.06;35.22;100770.25;4866086;28;96868;-84
2021/06/14 12:32:13;;;;;;;20.38;6.93;;;;;;;25.10;35.15;100768.16;4897094;28;97153;-86
2021/06/14 12:34:40;;;;;;;8.57;5.43;;;;;;;24.90;33.61;100761.84;4917083;28;101147;-86
2021/06/14 12:37:16;;;;;;;12.23;5.78;;;;;;;24.81;35.10;100761.69;4900941;28;101310;-86
2021/06/14 12:39:41;;;;;;;10.38;5.40;;;;;;;24.91;34.92;100766.25;4901242;28;97456;-86
2021/06/14 12:42:20;;;;;;;7.88;5.22;;;;;;;24.88;34.28;100761.16;4898206;28;97147;-84
2021/06/14 12:44:57;;;;;;;10.38;5.32;;;;;;;24.67;34.48;100758.47;4879014;28;101569;-84
2021/06/14 12:47:25;;;;;;;11.85;5.88;;;;;;;24.54;34.10;100756.00;4903286;28;98173;-89
2021/06/14 12:49:52;;;;;;;11.15;6.45;;;;;;;24.31;34.96;100747.22;4897752;28;97320;-90
2021/06/14 12:52:22;;;;;;;9.93;6.72;;;;;;;24.47;35.77;100752.16;4901351;28;96930;-90
2021/06/14 12:54:48;;;;;;;10.23;8.25;;;;;;;24.41;36.10;100748.13;4900209;28;101657;-90
2021/06/14 12:57:14;;;;;;;9.25;8.02;;;;;;;24.34;36.06;100737.06;4896633;28;98194;-90
2021/06/14 12:59:41;;;;;;;9.82;7.57;;;;;;;24.06;36.57;100743.94;4898298;28;96633;-90
2021/06/14 13:02:08;;;;;;;9.27;7.90;;;;;;;24.28;35.90;100736.75;4889673;28;97049;-90
2021/06/14 13:04:34;;;;;;;11.02;7.30;;;;;;;24.44;36.00;100733.66;4901261;28;101390;-90
2021/06/14 13:07:17;;;;;;;8.80;7.63;;;;;;;24.54;36.02;100726.50;4888708;28;101254;-90
2021/06/14 13:09:51;;;;;;;11.77;5.40;;;;;;;24.63;36.13;100731.91;4871583;28;97097;-85
2021/06/14 13:12:30;;;;;;;8.57;5.20;;;;;;;24.71;35.49;100720.50;4898817;28;96763;-87
2021/06/14 13:15:29;;;;;;;9.48;5.30;;;;;;;24.65;35.19;100712.16;4896432;28;98569;-87
2021/06/14 13:17:55;;;;;;;7.95;5.40;;;;;;;24.46;34.55;100702.16;4880315;28;98326;-84
2021/06/14 13:20:24;;;;;;;9.30;4.68;;;;;;;24.29;35.49;100706.25;4900186;28;96657;-87
2021/06/14 13:22:50;;;;;;;8.93;5.18;;;;;;;24.45;35.86;100703.16;4916358;28;98493;-85
2021/06/14 13:25:17;;;;;;;9.43;4.65;;;;;;;24.53;36.03;100701.50;4920563;28;97978;-87
2021/06/14 13:27:55;;;;;;;8.32;5.40;;;;;;;24.58;35.58;100693.91;4899799;28;100304;-84
2021/06/14 13:30:22;;;;;;;9.38;5.25;;;;;;;24.24;34.11;100692.41;4897386;28;96947;-82
2021/06/14 13:33:02;;;;;;;7.90;4.93;;;;;;;24.19;35.03;100690.09;4887058;28;97006;-80
2021/06/14 13:35:28;;;;;;;7.32;4.90;;;;;;;24.23;35.48;100683.50;4882109;28;101099;-80
2021/06/14 13:37:55;;;;;;;9.27;5.47;;;;;;;24.23;35.24;100688.00;4922103;28;102107;-87
2021/06/14 13:40:28;;;;;;;10.57;5.95;;;;;;;24.25;35.08;100686.88;4878548;28;96942;-82
2021/06/14 13:42:59;;;;;;;8.98;5.38;;;;;;;24.35;35.80;100686.97;4875570;28;97082;-84
2021/06/14 13:45:36;;;;;;;9.48;5.35;;;;;;;24.40;36.33;100688.28;4884444;28;101491;-80
2021/06/14 13:48:04;;;;;;;7.18;4.93;;;;;;;24.46;35.76;100678.00;4911057;28;101727;-82
2021/06/14 13:50:45;;;;;;;11.65;5.75;;;;;;;24.45;35.96;100674.47;4911915;28;97299;-84
2021/06/14 13:53:19;;;;;;;7.60;4.93;;;;;;;24.42;35.34;100669.34;4892493;28;97092;-84
2021/06/14 13:55:58;;;;;;;6.95;5.15;;;;;;;24.46;35.85;100665.44;4878358;28;101141;-87
2021/06/14 13:58:40;;;;;;;8.98;5.32;;;;;;;24.41;35.04;100662.28;4901308;28;98225;-85
2021/06/14 14:01:10;;;;;;;10.00;5.47;;;;;;;24.46;35.50;100656.53;4897227;28;97284;-84
2021/06/14 14:03:36;;;;;;;7.43;5.20;;;;;;;24.40;35.33;100656.09;4912307;28;97884;-86
2021/06/14 14:06:03;;;;;;;10.40;4.93;;;;;;;24.39;34.58;100653.50;4899854;28;98705;-84
2021/06/14 14:08:28;;;;;;;10.45;5.53;;;;;;;24.34;35.07;100651.22;4917978;28;100476;-87
2021/06/14 14:10:54;;;;;;;14.32;6.25;;;;;;;24.36;35.63;100638.53;4899718;28;97172;-87
2021/06/14 14:13:22;;;;;;;12.75;5.40;;;;;;;24.40;35.55;100625.69;4906613;28;96946;-86
2021/06/14 14:15:50;;;;;;;11.30;5.35;;;;;;;24.36;35.36;100635.84;4895858;28;101119;-87
2021/06/14 14:18:16;;;;;;;15.02;6.75;;;;;;;24.40;35.65;100628.38;4895333;28;101465;-87
2021/06/14 14:20:43;;;;;;;10.40;5.90;;;;;;;24.42;35.78;100623.72;4896958;28;96714;-88
2021/06/14 14:23:09;;;;;;;12.77;6.15;;;;;;;24.45;35.52;100622.66;4898498;28;97387;-87
2021/06/14 14:25:34;;;;;;;12.45;6.13;;;;;;;24.39;34.86;100632.91;4913688;28;99606;-88
2021/06/14 14:28:01;;;;;;;8.75;5.60;;;;;;;24.37;35.16;100634.84;4897984;28;101519;-88
2021/06/14 14:30:41;;;;;;;10.10;5.13;;;;;;;24.33;35.42;100629.91;4898404;28;96934;-87
2021/06/14 14:33:07;;;;;;;9.77;5.60;;;;;;;24.33;35.92;100629.91;4897630;28;96998;-88
2021/06/14 14:36:13;;;;;;;9.35;5.60;;;;;;;24.28;36.05;100624.94;4879452;28;101637;-88
2021/06/14 14:38:40;;;;;;;6.97;4.93;;;;;;;24.32;36.17;100622.84;4879084;28;101498;-88
2021/06/14 14:41:13;;;;;;;9.35;5.20;;;;;;;24.30;36.15;100625.66;4906342;28;97119;-87
2021/06/14 14:43:44;;;;;;;10.55;5.15;;;;;;;24.28;35.49;100616.03;4896114;28;97307;-88
2021/06/14 14:46:09;;;;;;;;;;;;;;;24.12;35.87;100619.22;4878208;28;101310;-88
2021/06/14 14:48:35;;;;;;;11.25;6.32;;;;;;;24.25;35.50;100608.25;4928502;28;98159;-87
2021/06/14 14:51:00;;;;;;;9.88;5.55;;;;;;;24.32;35.37;100610.28;4913151;28;96812;-88
2021/06/14 14:53:26;;;;;;;10.85;4.85;;;;;;;24.33;35.72;100605.78;4907827;28;96713;-87
2021/06/14 14:55:52;;;;;;;7.47;4.70;;;;;;;24.28;35.73;100610.69;4891340;28;100887;-89
2021/06/14 14:58:18;;;;;;;8.35;4.70;;;;;;;24.11;34.35;100604.94;4901080;28;98361;-87
2021/06/14 15:00:44;;;;;;;10.45;6.43;;;;;;;24.06;35.01;100609.88;4898747;28;96787;-88
2021/06/14 15:03:09;;;;;;;7.85;4.50;;;;;;;24.11;35.38;100601.41;4900989;28;97415;-88
2021/06/14 15:05:35;;;;;;;9.95;5.82;;;;;;;24.15;35.46;100602.84;4913966;28;98027;-88
2021/06/14 15:08:01;;;;;;;7.85;4.80;;;;;;;24.08;35.93;100596.31;4900854;28;97346;-87
2021/06/14 15:10:27;;;;;;;8.30;5.47;;;;;;;24.10;35.92;100605.09;4894879;28;97240;-88
2021/06/14 15:12:53;;;;;;;8.45;4.97;;;;;;;24.13;35.79;100602.13;4907943;28;97186;-87
2021/06/14 15:15:21;;;;;;;8.55;5.10;;;;;;;24.17;35.72;100607.13;4905572;28;100599;-88
2021/06/14 15:17:48;;;;;;;8.75;5.55;;;;;;;24.16;35.09;100599.19;4930387;28;98460;-88
2021/06/14 15:20:15;;;;;;;7.78;5.18;;;;;;;24.04;35.49;100600.25;4866256;28;97159;-88
2021/06/14 15:22:42;;;;;;;8.13;4.82;;;;;;;23.97;34.86;100591.03;4885520;28;97017;-88
2021/06/14 15:25:10;;;;;;;7.75;5.30;;;;;;;24.00;34.46;100594.31;4897394;28;99973;-88
2021/06/14 15:27:36;;;;;;;16.10;5.88;;;;;;;23.99;34.71;100600.63;4894576;28;99875;-88
2021/06/14 15:30:03;;;;;;;9.63;5.47;;;;;;;23.97;35.49;100605.31;4891443;28;96734;-88
2021/06/14 15:32:29;;;;;;;9.90;5.78;;;;;;;23.97;36.09;100604.44;4883019;28;96962;-89
2021/06/14 15:34:55;;;;;;;9.50;4.88;;;;;;;23.97;36.51;100604.44;4913811;28;98088;-88
2021/06/14 15:37:20;;;;;;;9.07;4.72;;;;;;;24.00;35.97;100605.03;4916819;28;97979;-88
2021/06/14 15:39:47;;;;;;;8.73;5.78;;;;;;;23.92;35.76;100602.16;4900624;28;97252;-87
2021/06/14 15:42:14;;;;;;;8.52;4.70;;;;;;;23.88;35.81;100598.91;4885536;28;97239;-88
2021/06/14 15:44:41;;;;;;;8.15;4.78;;;;;;;24.00;36.03;100594.31;4897388;28;100348;-88
2021/06/14 15:47:08;;;;;;;7.00;5.20;;;;;;;23.99;36.35;100600.63;4893960;28;101183;-89
2021/06/14 15:49:33;;;;;;;11.38;6.03;;;;;;;24.02;36.60;100597.69;4908951;28;97022;-88
2021/06/14 15:52:00;;;;;;;13.75;5.28;;;;;;;24.02;36.74;100595.00;4898371;28;96896;-87
2021/06/14 15:54:26;;;;;;;14.25;5.35;;;;;;;24.02;36.60;100597.69;4895503;28;100322;-88
2021/06/14 15:56:52;;;;;;;7.30;4.88;;;;;;;24.03;36.27;100587.81;4894853;28;101394;-88
2021/06/14 15:59:17;;;;;;;8.60;5.13;;;;;;;24.00;36.11;100588.94;4908460;28;96771;-89
2021/06/14 16:01:43;;;;;;;7.85;5.03;;;;;;;23.96;35.77;100582.13;4917441;28;96939;-89
2021/06/14 16:04:09;;;;;;;10.68;4.93;;;;;;;23.99;36.00;100589.06;4916070;28;98493;-89
2021/06/14 16:06:34;;;;;;;7.30;4.45;;;;;;;23.90;36.15;100583.50;4900879;28;101376;-89
2021/06/14 16:09:00;;;;;;;9.05;4.72;;;;;;;24.00;36.47;100585.41;4899799;28;96956;-87
2021/06/14 16:11:26;;;;;;;6.72;4.80;;;;;;;23.99;36.66;100587.22;4901159;28;96912;-88